This is the latest recevied weather packets stored in our database for station/object AC4AG. If no packets are shown the sender has not sent any weather packets the latest 10 day(s).
| Time | Temp. | Humidity | Pressure | Rain* | Wind** | Luminosity | Snow |
|---|---|---|---|---|---|---|---|
| 1777555114 | 10° C | 74% | 1016.1 hPa | 0 mm | - | 327 W/m² | - |
| 1777554812 | 10° C | 72% | 1016.1 hPa | 0 mm | - | 308 W/m² | - |
| 1777554509 | 10° C | 74% | 1016 hPa | 0 mm | - | 295 W/m² | - |
| 1777554206 | 10° C | 73% | 1015.9 hPa | 0 mm | - | 257 W/m² | - |
| 1777553903 | 9.44° C | 75% | 1015.8 hPa | 0 mm | - | 263 W/m² | - |
| 1777553599 | 9.44° C | 76% | 1015.9 hPa | 0 mm | - | 239 W/m² | - |
| 1777553295 | 9.44° C | 76% | 1015.9 hPa | 0 mm | - | 187 W/m² | - |
| 1777552991 | 8.89° C | 80% | 1015.8 hPa | 0 mm | - | 224 W/m² | - |
| 1777552690 | 8.89° C | 79% | 1015.8 hPa | 0 mm | - | 119 W/m² | - |
| 1777552388 | 8.89° C | 82% | 1015.9 hPa | 0 mm | - | 158 W/m² | - |
| 1777552084 | 8.89° C | 83% | 1015.9 hPa | 0 mm | - | 147 W/m² | - |
| 1777551782 | 8.89° C | 85% | 1016 hPa | 0 mm | - | 147 W/m² | - |
| 1777551479 | 8.89° C | 84% | 1015.7 hPa | 0 mm | - | 138 W/m² | - |
| 1777551175 | 8.89° C | 85% | 1015.7 hPa | 0 mm | - | 132 W/m² | - |
| 1777550873 | 8.89° C | 85% | 1015.7 hPa | 0 mm | - | 112 W/m² | - |
| 1777550569 | 8.89° C | 85% | 1015.4 hPa | 0 mm | - | 96 W/m² | - |
| 1777550265 | 8.89° C | 85% | 1015.4 hPa | 0 mm | - | 91 W/m² | - |
| 1777549962 | 8.89° C | 84% | 1015.4 hPa | 0 mm | - | 79 W/m² | - |
| 1777549658 | 8.89° C | 86% | 1015.3 hPa | 0 mm | - | 70 W/m² | - |
| 1777549353 | 8.33° C | 86% | 1015.2 hPa | 0 mm | - | 63 W/m² | - |
| 1777549052 | 8.33° C | 87% | 1015.2 hPa | 0 mm | - | 54 W/m² | - |
| 1777548747 | 8.33° C | 87% | 1015.1 hPa | 0 mm | - | 46 W/m² | - |
| 1777548445 | 8.33° C | 87% | 1014.9 hPa | 0 mm | - | 41 W/m² | - |
| 1777548141 | 7.78° C | 86% | 1014.9 hPa | 0 mm | - | 36 W/m² | - |
| 1777547837 | 7.78° C | 87% | 1015 hPa | 0 mm | - | 30 W/m² | - |
* Rain latest hour (hover to see other rain measurements)
** Current wind speed in m/s (hover to see current wind gust speed)